createdAt,value
2022-08-11T00:01:13.946Z,100199.00
2022-08-11T00:03:48.781Z,100198.66
2022-08-11T00:06:25.673Z,100199.84
2022-08-11T00:08:55.163Z,100202.19
2022-08-11T00:11:35.106Z,100203.09
2022-08-11T00:14:04.943Z,100180.66
2022-08-11T00:16:34.226Z,100193.84
2022-08-11T00:19:04.145Z,100203.56
2022-08-11T00:22:04.561Z,100187.53
2022-08-11T00:24:34.623Z,100202.28
2022-08-11T00:27:34.095Z,100209.97
2022-08-11T00:30:02.474Z,100197.41
2022-08-11T00:32:31.946Z,100204.34
2022-08-11T00:35:53.848Z,100199.28
2022-08-11T00:37:52.082Z,100212.78
2022-08-11T00:40:27.127Z,100217.91
2022-08-11T00:43:10.777Z,100222.06
2022-08-11T00:46:07.583Z,100245.00
2022-08-11T00:48:46.501Z,100273.63
2022-08-11T00:51:27.005Z,100305.03
2022-08-11T00:54:45.216Z,100311.97
2022-08-11T00:57:39.159Z,100297.56
2022-08-11T01:00:17.508Z,100315.53
2022-08-11T01:03:09.891Z,100314.03
2022-08-11T01:05:57.773Z,100315.03
2022-08-11T01:08:59.646Z,100308.88
2022-08-11T01:11:56.386Z,100308.59
2022-08-11T01:14:41.838Z,100298.84
2022-08-11T01:17:48.926Z,100310.28
2022-08-11T01:20:48.669Z,100294.59
2022-08-11T01:23:57.158Z,100288.34
2022-08-11T01:27:19.314Z,100290.03
2022-08-11T01:30:24.024Z,100291.66
2022-08-11T01:33:21.776Z,100271.59
2022-08-11T01:36:25.915Z,100274.72
2022-08-11T01:39:19.876Z,100277.88
2022-08-11T01:42:36.203Z,100265.94
2022-08-11T01:45:12.796Z,100258.16
2022-08-11T01:47:54.811Z,100257.50
2022-08-11T01:50:32.674Z,100252.91
2022-08-11T01:53:11.507Z,100254.91
2022-08-11T01:55:48.782Z,100242.88
2022-08-11T01:58:21.650Z,100244.03
2022-08-11T02:01:28.857Z,100228.03
2022-08-11T02:04:11.280Z,100224.81
2022-08-11T02:06:58.565Z,100232.66
2022-08-11T02:09:49.597Z,100227.97
2022-08-11T02:12:38.127Z,100238.88
2022-08-11T02:15:16.739Z,100241.78
2022-08-11T02:17:55.659Z,100242.09
2022-08-11T02:20:44.897Z,100243.59
2022-08-11T02:23:59.651Z,100241.22
2022-08-11T02:26:37.743Z,100241.06
2022-08-11T02:29:17.035Z,100227.50
2022-08-11T02:32:28.740Z,100223.97
2022-08-11T02:35:05.868Z,100224.38
2022-08-11T02:37:47.158Z,100233.38
2022-08-11T02:40:26.224Z,100226.38
2022-08-11T02:43:10.351Z,100225.16
2022-08-11T02:45:54.689Z,100220.22
2022-08-11T02:48:52.066Z,100216.13
2022-08-11T02:51:31.481Z,100230.78
2022-08-11T02:54:10.619Z,100223.78
2022-08-11T02:56:46.664Z,100226.06
2022-08-11T02:59:43.838Z,100223.81
2022-08-11T03:02:19.308Z,100238.19
2022-08-11T03:05:00.365Z,100233.13
2022-08-11T03:07:35.170Z,100228.53
2022-08-11T03:10:11.484Z,100238.47
2022-08-11T03:13:03.292Z,100226.63
2022-08-11T03:16:06.141Z,100220.03
2022-08-11T03:18:42.512Z,100233.59
2022-08-11T03:22:01.563Z,100233.31
2022-08-11T03:24:26.889Z,100238.72
2022-08-11T03:27:11.179Z,100232.56
2022-08-11T03:29:50.260Z,100234.69
2022-08-11T03:32:30.033Z,100237.13
2022-08-11T03:35:01.521Z,100250.19
2022-08-11T03:37:52.095Z,100246.78
2022-08-11T03:40:54.644Z,100251.91
2022-08-11T03:43:58.123Z,100250.16
2022-08-11T03:46:39.758Z,100252.13
2022-08-11T03:49:24.742Z,100250.38
2022-08-11T03:51:57.780Z,100247.38
2022-08-11T03:54:34.841Z,100254.84
2022-08-11T03:57:35.002Z,100251.59
2022-08-11T04:00:22.056Z,100244.59
2022-08-11T04:03:11.026Z,100238.50
2022-08-11T04:06:28.826Z,100248.09
2022-08-11T04:09:38.325Z,100243.25
2022-08-11T04:12:35.954Z,100244.56
2022-08-11T04:16:11.766Z,100247.38
2022-08-11T04:19:31.218Z,100252.22
2022-08-11T04:22:20.231Z,100243.41
2022-08-11T04:25:17.337Z,100247.44
2022-08-11T04:28:29.113Z,100249.34
2022-08-11T04:31:44.196Z,100245.81
2022-08-11T04:34:37.519Z,100254.00
2022-08-11T04:37:35.595Z,100240.22
2022-08-11T04:40:45.419Z,100242.91
2022-08-11T04:44:07.010Z,100253.75
2022-08-11T04:48:03.741Z,100264.72
2022-08-11T04:51:15.994Z,100262.06
2022-08-11T04:54:31.561Z,100274.22
2022-08-11T04:57:30.905Z,100272.31
2022-08-11T05:00:24.403Z,100270.78
2022-08-11T05:03:19.035Z,100269.66
2022-08-11T05:06:11.237Z,100260.59
2022-08-11T05:09:03.996Z,100270.78
2022-08-11T05:12:16.677Z,100281.56
2022-08-11T05:15:08.476Z,100288.72
2022-08-11T05:17:59.351Z,100280.56
2022-08-11T05:20:46.377Z,100287.75
2022-08-11T05:23:34.160Z,100283.94
2022-08-11T05:26:46.017Z,100295.47
2022-08-11T05:29:55.659Z,100294.28
2022-08-11T05:32:42.497Z,100293.69
2022-08-11T05:35:18.528Z,100296.47
2022-08-11T05:38:20.012Z,100307.31
2022-08-11T05:41:10.641Z,100306.91
2022-08-11T05:44:21.413Z,100307.84
2022-08-11T05:47:09.320Z,100313.53
2022-08-11T05:49:58.117Z,100309.69
2022-08-11T05:52:46.987Z,100312.56
2022-08-11T05:55:35.801Z,100317.50
2022-08-11T05:58:23.017Z,100308.84
2022-08-11T06:00:54.149Z,100310.59
2022-08-11T06:03:27.404Z,100301.31
2022-08-11T06:05:57.566Z,100320.91
2022-08-11T06:08:31.273Z,100306.00
2022-08-11T06:11:04.915Z,100313.44
2022-08-11T06:13:33.971Z,100315.38
2022-08-11T06:16:06.982Z,100308.13
2022-08-11T06:18:36.411Z,100297.19
2022-08-11T06:21:12.515Z,100310.97
2022-08-11T06:23:42.756Z,100311.72
2022-08-11T06:26:11.835Z,100307.22
2022-08-11T06:28:42.413Z,100312.31
2022-08-11T06:31:16.561Z,100302.47
2022-08-11T06:33:57.455Z,100307.63
2022-08-11T06:36:50.143Z,100310.63
2022-08-11T06:39:25.685Z,100298.22
2022-08-11T06:42:00.596Z,100291.34
2022-08-11T06:44:32.980Z,100299.97
2022-08-11T06:47:12.505Z,100311.41
2022-08-11T06:50:03.849Z,100300.28
2022-08-11T06:52:36.411Z,100300.78
2022-08-11T06:55:56.642Z,100304.97
2022-08-11T06:58:16.573Z,100301.28
2022-08-11T07:00:47.319Z,100313.75
2022-08-11T07:03:20.890Z,100308.66
2022-08-11T07:05:56.034Z,100311.53
2022-08-11T07:09:29.717Z,100305.38
2022-08-11T07:12:52.766Z,100321.50
2022-08-11T07:16:09.058Z,100312.13
2022-08-11T07:18:50.468Z,100321.91
2022-08-11T07:22:02.746Z,100313.97
2022-08-11T07:25:02.038Z,100321.13
2022-08-11T07:27:55.052Z,100320.31
2022-08-11T07:30:26.289Z,100332.53
2022-08-11T07:32:56.309Z,100322.38
2022-08-11T07:35:32.726Z,100334.94
2022-08-11T07:38:07.242Z,100325.28
2022-08-11T07:40:37.687Z,100323.34
2022-08-11T07:43:08.116Z,100327.22
2022-08-11T07:45:54.404Z,100328.91
2022-08-11T07:48:40.535Z,100316.72
2022-08-11T07:51:28.400Z,100323.53
2022-08-11T07:54:03.025Z,100312.72
2022-08-11T07:57:07.368Z,100307.31
2022-08-11T08:00:03.820Z,100313.66
2022-08-11T08:02:49.842Z,100324.00
2022-08-11T08:05:37.448Z,100322.22
2022-08-11T08:08:27.324Z,100325.97
2022-08-11T08:11:15.337Z,100314.66
2022-08-11T08:14:02.193Z,100334.84
2022-08-11T08:16:49.237Z,100316.03
2022-08-11T08:19:20.814Z,100333.94
2022-08-11T08:21:49.852Z,100329.31
2022-08-11T08:24:21.448Z,100319.84
2022-08-11T08:27:00.007Z,100316.69
2022-08-11T08:29:48.464Z,100321.75
2022-08-11T08:32:18.689Z,100316.91
2022-08-11T08:34:48.231Z,100309.59
2022-08-11T08:37:45.506Z,100306.94
2022-08-11T08:40:12.033Z,100302.13
2022-08-11T08:42:48.009Z,100299.50
2022-08-11T08:45:18.661Z,100304.16
2022-08-11T08:47:53.214Z,100302.72
2022-08-11T08:50:46.977Z,100309.53
2022-08-11T08:53:21.984Z,100302.41
2022-08-11T08:55:57.369Z,100299.94
2022-08-11T08:58:26.802Z,100296.94
2022-08-11T09:00:58.117Z,100299.44
2022-08-11T09:04:06.788Z,100301.97
2022-08-11T09:06:17.871Z,100282.97
2022-08-11T09:08:49.690Z,100299.63
2022-08-11T09:11:42.625Z,100301.53
2022-08-11T09:14:15.044Z,100283.94
2022-08-11T09:16:45.071Z,100291.63
2022-08-11T09:19:18.041Z,100296.34
2022-08-11T09:22:08.845Z,100298.66
2022-08-11T09:24:58.075Z,100279.41
2022-08-11T09:27:28.678Z,100282.13
2022-08-11T09:29:57.498Z,100275.91
2022-08-11T09:32:29.380Z,100282.59
2022-08-11T09:34:58.614Z,100278.41
2022-08-11T09:37:55.270Z,100275.19
2022-08-11T09:40:33.712Z,100280.41
2022-08-11T09:43:23.857Z,100279.72
2022-08-11T09:45:54.873Z,100285.59
2022-08-11T09:48:26.573Z,100275.19
2022-08-11T09:50:57.044Z,100284.59
2022-08-11T09:53:36.433Z,100269.19
2022-08-11T09:56:22.372Z,100267.00
2022-08-11T09:58:52.853Z,100271.44
2022-08-11T10:01:28.257Z,100267.41
2022-08-11T10:04:05.251Z,100268.22
2022-08-11T10:06:54.492Z,100254.63
2022-08-11T10:09:26.083Z,100261.16
2022-08-11T10:11:58.800Z,100256.56
2022-08-11T10:14:47.100Z,100263.28
2022-08-11T10:17:17.247Z,100259.78
2022-08-11T10:20:03.984Z,100265.97
2022-08-11T10:22:51.033Z,100258.78
2022-08-11T10:25:37.236Z,100257.09
2022-08-11T10:28:16.779Z,100269.34
2022-08-11T10:31:16.404Z,100269.44
2022-08-11T10:34:04.981Z,100266.69
2022-08-11T10:36:40.297Z,100261.03
2022-08-11T10:39:08.627Z,100264.28
2022-08-11T10:42:08.701Z,100284.69
2022-08-11T10:44:41.494Z,100259.84
2022-08-11T10:47:31.826Z,100266.63
2022-08-11T10:50:19.396Z,100261.56
2022-08-11T10:53:08.218Z,100262.59
2022-08-11T10:55:58.753Z,100265.75
2022-08-11T10:58:45.432Z,100262.31
2022-08-11T11:01:14.926Z,100246.38
2022-08-11T11:03:45.908Z,100261.88
2022-08-11T11:06:29.410Z,100252.25
2022-08-11T11:09:04.473Z,100263.47
2022-08-11T11:11:55.956Z,100250.63
2022-08-11T11:14:50.814Z,100252.25
2022-08-11T11:17:46.880Z,100254.56
2022-08-11T11:20:34.473Z,100238.38
2022-08-11T11:23:11.471Z,100230.16
2022-08-11T11:26:11.306Z,100239.53
2022-08-11T11:29:04.285Z,100237.38
2022-08-11T11:31:47.281Z,100226.78
2022-08-11T11:34:24.973Z,100246.69
2022-08-11T11:36:58.794Z,100242.19
2022-08-11T11:39:31.231Z,100233.22
2022-08-11T11:42:03.307Z,100231.53
2022-08-11T11:44:32.104Z,100232.69
2022-08-11T11:47:01.830Z,100223.69
2022-08-11T11:49:32.481Z,100225.41
2022-08-11T11:52:02.778Z,100221.81
2022-08-11T11:54:33.933Z,100212.72
2022-08-11T11:57:25.915Z,100219.06
2022-08-11T12:00:13.762Z,100218.59
2022-08-11T12:02:43.163Z,100226.81
2022-08-11T12:05:12.152Z,100228.22
2022-08-11T12:08:10.601Z,100209.16
2022-08-11T12:10:46.298Z,100221.03
2022-08-11T12:13:32.569Z,100222.72
2022-08-11T12:16:31.824Z,100210.09
2022-08-11T12:18:55.417Z,100226.69
2022-08-11T12:21:25.125Z,100220.59
2022-08-11T12:24:16.148Z,100212.84
2022-08-11T12:27:16.550Z,100219.63
2022-08-11T12:29:54.485Z,100217.44
2022-08-11T12:32:26.107Z,100235.09
2022-08-11T12:34:57.357Z,100228.03
2022-08-11T12:37:31.698Z,100231.63
2022-08-11T12:40:43.207Z,100230.31
2022-08-11T12:43:37.225Z,100213.75
2022-08-11T12:46:09.064Z,100237.81
2022-08-11T12:49:02.555Z,100230.34
2022-08-11T12:52:11.190Z,100231.03
2022-08-11T12:55:00.030Z,100250.34
2022-08-11T12:57:50.890Z,100237.66
2022-08-11T13:00:38.291Z,100225.69
2022-08-11T13:03:26.909Z,100239.88
2022-08-11T13:05:58.871Z,100227.38
2022-08-11T13:08:29.643Z,100239.59
2022-08-11T13:11:18.943Z,100220.97
2022-08-11T13:13:55.968Z,100226.41
2022-08-11T13:16:29.801Z,100223.75
2022-08-11T13:19:01.316Z,100221.47
2022-08-11T13:21:31.053Z,100229.59
2022-08-11T13:24:03.051Z,100222.94
2022-08-11T13:26:48.488Z,100224.19
2022-08-11T13:29:26.713Z,100212.53
2022-08-11T13:31:58.319Z,100228.63
2022-08-11T13:34:28.356Z,100208.00
2022-08-11T13:36:58.321Z,100223.75
2022-08-11T13:39:29.713Z,100211.38
2022-08-11T13:42:00.695Z,100205.78
2022-08-11T13:44:32.902Z,100205.28
2022-08-11T13:47:04.560Z,100205.13
2022-08-11T13:49:35.103Z,100213.91
2022-08-11T13:52:05.771Z,100207.44
2022-08-11T13:54:38.568Z,100211.41
2022-08-11T13:58:06.693Z,100214.31
2022-08-11T14:00:12.188Z,100217.28
2022-08-11T14:02:53.294Z,100217.38
2022-08-11T14:05:26.944Z,100215.63
2022-08-11T14:08:00.668Z,100210.94
2022-08-11T14:10:33.009Z,100216.03
2022-08-11T14:13:22.136Z,100214.50
2022-08-11T14:15:54.615Z,100212.22
2022-08-11T14:18:27.300Z,100225.47
2022-08-11T14:21:14.592Z,100215.59
2022-08-11T14:23:45.625Z,100215.34
2022-08-11T14:26:27.066Z,100215.22
2022-08-11T14:28:58.092Z,100215.47
2022-08-11T14:31:32.086Z,100214.47
2022-08-11T14:34:03.515Z,100221.25
2022-08-11T14:36:35.151Z,100215.81
2022-08-11T14:39:08.174Z,100214.88
2022-08-11T14:42:12.569Z,100216.94
2022-08-11T14:45:01.965Z,100217.66
2022-08-11T14:47:35.128Z,100226.69
2022-08-11T14:50:11.606Z,100221.75
2022-08-11T14:52:45.900Z,100227.16
2022-08-11T14:55:32.709Z,100219.59
2022-08-11T14:58:03.301Z,100222.06
2022-08-11T15:00:35.317Z,100223.88
2022-08-11T15:03:12.959Z,100218.44
2022-08-11T15:05:56.319Z,100215.44
2022-08-11T15:08:42.761Z,100213.13
2022-08-11T15:11:26.826Z,100201.53
2022-08-11T15:13:56.391Z,100214.25
2022-08-11T15:16:43.567Z,100213.22
2022-08-11T15:19:14.354Z,100209.69
2022-08-11T15:22:00.596Z,100204.03
2022-08-11T15:24:31.220Z,100209.38
2022-08-11T15:27:19.994Z,100219.41
2022-08-11T15:30:07.972Z,100214.84
2022-08-11T15:32:54.158Z,100218.47
2022-08-11T15:35:42.770Z,100221.66
2022-08-11T15:38:14.076Z,100216.75
2022-08-11T15:41:02.122Z,100226.81
2022-08-11T15:43:57.351Z,100228.28
2022-08-11T15:46:32.981Z,100234.41
2022-08-11T15:49:04.169Z,100235.75
2022-08-11T15:51:38.710Z,100223.28
2022-08-11T15:54:09.699Z,100230.00
2022-08-11T15:56:41.219Z,100236.78
2022-08-11T15:59:43.048Z,100230.19
2022-08-11T16:02:34.484Z,100233.63
2022-08-11T16:05:11.659Z,100235.00
2022-08-11T16:07:43.285Z,100235.47
2022-08-11T16:10:19.361Z,100228.97
2022-08-11T16:13:22.291Z,100228.59
2022-08-11T16:16:12.208Z,100230.38
2022-08-11T16:18:51.587Z,100238.84
2022-08-11T16:21:26.016Z,100232.22
2022-08-11T16:27:04.127Z,100234.69
2022-08-11T16:27:10.079Z,100241.38
2022-08-11T16:29:45.752Z,100238.50
2022-08-11T16:32:22.207Z,100234.00
2022-08-11T16:35:16.503Z,100246.47
2022-08-11T16:38:03.241Z,100241.97
2022-08-11T16:40:34.946Z,100242.53
2022-08-11T16:43:24.101Z,100241.09
2022-08-11T16:46:13.073Z,100243.84
2022-08-11T16:48:44.945Z,100249.50
2022-08-11T16:51:14.555Z,100245.50
2022-08-11T16:54:03.541Z,100243.63
2022-08-11T16:56:38.291Z,100246.50
2022-08-11T16:59:15.902Z,100245.16
2022-08-11T17:01:48.728Z,100249.84
2022-08-11T17:04:43.278Z,100249.31
2022-08-11T17:07:42.287Z,100253.69
2022-08-11T17:10:51.172Z,100251.47
2022-08-11T17:13:30.608Z,100247.03
2022-08-11T17:16:08.346Z,100255.72
2022-08-11T17:18:43.578Z,100249.47
2022-08-11T17:21:16.226Z,100266.09
2022-08-11T17:24:05.094Z,100261.63
2022-08-11T17:26:57.178Z,100263.75
2022-08-11T17:29:30.256Z,100269.69
2022-08-11T17:32:16.434Z,100265.75
2022-08-11T17:35:07.435Z,100263.53
2022-08-11T17:37:37.852Z,100268.03
2022-08-11T17:40:12.591Z,100269.66
2022-08-11T17:43:00.512Z,100266.66
2022-08-11T17:45:55.919Z,100267.38
2022-08-11T17:48:27.533Z,100283.03
2022-08-11T17:50:59.251Z,100270.53
2022-08-11T17:54:24.065Z,100270.53
2022-08-11T17:57:20.126Z,100278.34
2022-08-11T17:59:54.297Z,100269.63
2022-08-11T18:02:47.209Z,100275.81
2022-08-11T18:05:19.807Z,100265.97
2022-08-11T18:08:08.085Z,100270.22
2022-08-11T18:10:55.024Z,100276.50
2022-08-11T18:13:42.888Z,100283.19
2022-08-11T18:16:29.448Z,100279.63
2022-08-11T18:19:16.496Z,100276.94
2022-08-11T18:22:14.833Z,100277.75
2022-08-11T18:25:12.267Z,100275.81
2022-08-11T18:28:02.149Z,100289.94
2022-08-11T18:30:53.831Z,100285.34
2022-08-11T18:34:06.889Z,100283.38
2022-08-11T18:36:59.347Z,100285.28
2022-08-11T18:39:54.655Z,100273.91
2022-08-11T18:42:43.994Z,100272.78
2022-08-11T18:45:39.990Z,100275.94
2022-08-11T18:48:37.396Z,100278.34
2022-08-11T18:51:31.287Z,100285.44
2022-08-11T18:54:28.545Z,100279.97
2022-08-11T18:57:16.949Z,100275.31
2022-08-11T19:00:05.172Z,100270.28
2022-08-11T19:02:54.121Z,100278.19
2022-08-11T19:06:32.174Z,100282.41
2022-08-11T19:08:50.095Z,100277.78
2022-08-11T19:11:42.865Z,100275.50
2022-08-11T19:14:31.297Z,100269.66
2022-08-11T19:17:44.172Z,100275.94
2022-08-11T19:20:29.348Z,100287.41
2022-08-11T19:23:16.538Z,100273.75
2022-08-11T19:26:03.840Z,100279.63
2022-08-11T19:28:53.350Z,100283.59
2022-08-11T19:31:44.441Z,100283.59
2022-08-11T19:34:32.025Z,100277.03
2022-08-11T19:37:22.006Z,100282.84
2022-08-11T19:40:11.550Z,100288.38
2022-08-11T19:42:59.174Z,100274.28
2022-08-11T19:45:51.197Z,100284.84
2022-08-11T19:48:40.266Z,100286.81
2022-08-11T19:51:27.482Z,100281.38
2022-08-11T19:54:14.292Z,100289.19
2022-08-11T19:57:02.803Z,100283.72
2022-08-11T19:59:49.474Z,100292.28
2022-08-11T20:02:36.386Z,100290.38
2022-08-11T20:05:22.842Z,100296.63
2022-08-11T20:08:09.514Z,100305.63
2022-08-11T20:10:55.741Z,100306.41
2022-08-11T20:13:44.928Z,100302.94
2022-08-11T20:16:33.037Z,100305.69
2022-08-11T20:19:26.271Z,100299.41
2022-08-11T20:22:27.335Z,100300.59
2022-08-11T20:25:14.324Z,100295.88
2022-08-11T20:28:00.984Z,100304.91
2022-08-11T20:30:48.679Z,100304.06
2022-08-11T20:33:39.426Z,100302.13
2022-08-11T20:36:27.576Z,100307.25
2022-08-11T20:39:15.406Z,100308.78
2022-08-11T20:42:01.357Z,100307.25
2022-08-11T20:44:48.379Z,100309.25
2022-08-11T20:47:56.259Z,100308.84
2022-08-11T20:50:45.888Z,100313.56
2022-08-11T20:53:36.147Z,100310.09
2022-08-11T20:56:28.698Z,100314.00
2022-08-11T20:59:18.445Z,100326.13
2022-08-11T21:02:05.537Z,100318.31
2022-08-11T21:04:56.717Z,100319.91
2022-08-11T21:07:45.853Z,100327.31
2022-08-11T21:10:46.770Z,100322.28
2022-08-11T21:13:37.022Z,100317.22
2022-08-11T21:16:27.206Z,100321.94
2022-08-11T21:20:00.604Z,100332.84
2022-08-11T21:22:28.565Z,100327.78
2022-08-11T21:25:16.589Z,100328.16
2022-08-11T21:28:06.637Z,100330.91
2022-08-11T21:30:57.524Z,100340.28
2022-08-11T21:33:46.086Z,100348.50
2022-08-11T21:36:33.796Z,100334.84
2022-08-11T21:39:24.999Z,100332.47
2022-08-11T21:42:12.660Z,100332.13
2022-08-11T21:45:01.862Z,100322.38
2022-08-11T21:47:49.507Z,100323.94
2022-08-11T21:50:46.701Z,100321.59
2022-08-11T21:53:33.204Z,100325.09
2022-08-11T21:56:20.027Z,100322.38
2022-08-11T21:59:08.858Z,100323.94
2022-08-11T22:01:56.638Z,100327.84
2022-08-11T22:04:44.091Z,100327.06
2022-08-11T22:07:30.838Z,100326.28
2022-08-11T22:10:41.562Z,100339.53
2022-08-11T22:13:25.976Z,100339.53
2022-08-11T22:16:11.946Z,100343.44
2022-08-11T22:19:01.197Z,100339.91
2022-08-11T22:22:03.816Z,100339.09
2022-08-11T22:24:51.696Z,100342.22
2022-08-11T22:27:37.251Z,100334.78
2022-08-11T22:30:24.934Z,100339.47
2022-08-11T22:33:11.712Z,100333.25
2022-08-11T22:36:00.372Z,100325.84
2022-08-11T22:38:47.014Z,100319.97
2022-08-11T22:41:32.832Z,100328.91
2022-08-11T22:44:18.191Z,100324.66
2022-08-11T22:47:04.275Z,100322.69
2022-08-11T22:49:57.883Z,100328.50
2022-08-11T22:52:47.696Z,100322.28
2022-08-11T22:55:33.655Z,100324.59
2022-08-11T22:58:20.728Z,100316.38
2022-08-11T23:01:07.297Z,100324.56
2022-08-11T23:03:53.626Z,100312.84
2022-08-11T23:06:40.114Z,100316.78
2022-08-11T23:09:28.299Z,100315.94
2022-08-11T23:12:14.522Z,100302.72
2022-08-11T23:15:00.630Z,100307.44
2022-08-11T23:17:46.730Z,100298.50
2022-08-11T23:20:41.271Z,100294.22
2022-08-11T23:23:36.556Z,100292.66
2022-08-11T23:26:24.696Z,100291.88
2022-08-11T23:29:11.690Z,100288.00
2022-08-11T23:31:57.803Z,100285.66
2022-08-11T23:35:04.062Z,100275.91
2022-08-11T23:37:54.079Z,100281.75
2022-08-11T23:40:39.891Z,100288.75
2022-08-11T23:43:27.089Z,100293.44
2022-08-11T23:46:12.702Z,100289.53
2022-08-11T23:49:00.403Z,100283.31
2022-08-11T23:51:47.562Z,100291.84
2022-08-11T23:54:37.324Z,100288.31
2022-08-11T23:57:23.930Z,100292.25
